Time;durP1;ratioP1;P1;durP2;ratioP2;P2;SDS_P1;SDS_P2;PMS_P1;PMS_P2;Temp;Humidity;BMP_temperature;BMP_pressure;BME280_temperature;BME280_humidity;BME280_pressure;Samples;Min_cycle;Max_cycle;Signal;HPM_P1;HPM_P2
2022/12/20 00:01:28;;;;;;;3.17;2.70;;;;;;;;;;5003487;28;20515;-42
2022/12/20 00:03:55;;;;;;;3.83;3.00;;;;;;;;;;5003387;28;20459;-42
2022/12/20 00:06:22;;;;;;;4.93;3.43;;;;;;;;;;5004998;28;20453;-43
2022/12/20 00:08:53;;;;;;;3.50;3.13;;;;;;;;;;5007282;28;20937;-43
2022/12/20 00:11:18;;;;;;;4.13;3.40;;;;;;;;;;5006487;28;20943;-42
2022/12/20 00:13:46;;;;;;;3.90;3.40;;;;;;;;;;5003164;28;20415;-42
2022/12/20 00:16:13;;;;;;;2.97;2.77;;;;;;;;;;4999663;28;20420;-42
2022/12/20 00:18:39;;;;;;;3.30;2.80;;;;;;;;;;5006272;28;20919;-43
2022/12/20 00:21:06;;;;;;;3.17;2.87;;;;;;;;;;5003527;28;20481;-42
2022/12/20 00:23:33;;;;;;;3.80;2.87;;;;;;;;;;5006240;28;20549;-42
2022/12/20 00:26:05;;;;;;;3.47;2.97;;;;;;;;;;5003968;28;20424;-42
2022/12/20 00:28:31;;;;;;;3.23;2.53;;;;;;;;;;5006136;28;20741;-43
2022/12/20 00:30:57;;;;;;;2.90;2.70;;;;;;;;;;5001914;28;20470;-43
2022/12/20 00:33:23;;;;;;;2.93;2.73;;;;;;;;;;5004273;28;20421;-42
2022/12/20 00:35:49;;;;;;;3.17;2.87;;;;;;;;;;5004474;28;20433;-42
2022/12/20 00:38:15;;;;;;;2.83;2.63;;;;;;;;;;4990507;28;20522;-43
2022/12/20 00:40:41;;;;;;;2.70;2.50;;;;;;;;;;4998217;28;20414;-43
2022/12/20 00:43:07;;;;;;;3.47;2.83;;;;;;;;;;4998351;28;20464;-43
2022/12/20 00:45:33;;;;;;;4.70;2.93;;;;;;;;;;5006162;28;20448;-43
2022/12/20 00:47:59;;;;;;;3.00;2.80;;;;;;;;;;5004540;28;20450;-42
2022/12/20 00:50:25;;;;;;;3.97;2.90;;;;;;;;;;5004755;28;20410;-43
2022/12/20 00:52:51;;;;;;;3.30;3.00;;;;;;;;;;5003425;28;20444;-42
2022/12/20 00:55:17;;;;;;;4.13;3.40;;;;;;;;;;5002303;28;20515;-42
2022/12/20 00:57:43;;;;;;;3.27;2.83;;;;;;;;;;5005573;28;20423;-42
2022/12/20 01:00:10;;;;;;;5.60;2.63;;;;;;;;;;5005286;28;20419;-42
2022/12/20 01:02:36;;;;;;;4.40;3.27;;;;;;;;;;4997239;28;20494;-42
2022/12/20 01:05:02;;;;;;;3.00;2.50;;;;;;;;;;5002253;28;20416;-42
2022/12/20 01:07:28;;;;;;;3.27;3.00;;;;;;;;;;5004512;28;20420;-43
2022/12/20 01:09:54;;;;;;;3.33;2.67;;;;;;;;;;5001283;28;20760;-42
2022/12/20 01:12:20;;;;;;;4.50;3.03;;;;;;;;;;5001321;28;20496;-42
2022/12/20 01:14:46;;;;;;;4.40;3.13;;;;;;;;;;5001578;28;20674;-42
2022/12/20 01:17:12;;;;;;;4.33;2.93;;;;;;;;;;5006819;28;20471;-42
2022/12/20 01:19:38;;;;;;;3.93;2.80;;;;;;;;;;5001296;28;20446;-42
2022/12/20 01:22:04;;;;;;;2.80;2.60;;;;;;;;;;4998082;28;20481;-43
2022/12/20 01:24:30;;;;;;;3.60;2.30;;;;;;;;;;5002287;28;20404;-42
2022/12/20 01:26:56;;;;;;;3.00;2.70;;;;;;;;;;5001886;28;20455;-42
2022/12/20 01:29:22;;;;;;;2.90;2.63;;;;;;;;;;5003843;28;20413;-42
2022/12/20 01:31:48;;;;;;;3.47;3.00;;;;;;;;;;5004062;28;20429;-42
2022/12/20 01:34:14;;;;;;;3.40;2.97;;;;;;;;;;5005943;28;20426;-42
2022/12/20 01:36:41;;;;;;;3.63;2.40;;;;;;;;;;5000634;28;20412;-42
2022/12/20 01:39:07;;;;;;;3.90;2.83;;;;;;;;;;4997855;28;20507;-42
2022/12/20 01:41:33;;;;;;;3.00;2.73;;;;;;;;;;5003888;28;20439;-42
2022/12/20 01:44:01;;;;;;;3.07;2.73;;;;;;;;;;5003556;28;20818;-43
2022/12/20 01:46:28;;;;;;;4.67;3.23;;;;;;;;;;5004189;28;20931;-43
2022/12/20 01:49:16;;;;;;;3.60;2.63;;;;;;;;;;5002717;28;20499;-42
2022/12/20 01:52:08;;;;;;;6.97;2.63;;;;;;;;;;4999181;28;20440;-43
2022/12/20 01:54:39;;;;;;;3.50;3.20;;;;;;;;;;5000122;28;20428;-42
2022/12/20 01:57:10;;;;;;;6.20;3.00;;;;;;;;;;5001317;28;20965;-42
2022/12/20 01:59:37;;;;;;;3.07;2.80;;;;;;;;;;4996054;28;20902;-42
2022/12/20 02:02:06;;;;;;;3.00;2.73;;;;;;;;;;5002842;28;20438;-42
2022/12/20 02:04:32;;;;;;;3.10;2.80;;;;;;;;;;4998622;28;20912;-42
2022/12/20 02:06:58;;;;;;;3.97;2.90;;;;;;;;;;4998077;28;20997;-42
2022/12/20 02:09:24;;;;;;;3.63;3.33;;;;;;;;;;5002670;28;20417;-43
2022/12/20 02:11:53;;;;;;;3.00;2.80;;;;;;;;;;5003503;28;20429;-42
2022/12/20 02:14:22;;;;;;;3.10;2.80;;;;;;;;;;5001179;28;20455;-42
2022/12/20 02:16:52;;;;;;;3.33;3.13;;;;;;;;;;5003172;28;20540;-42
2022/12/20 02:19:27;;;;;;;3.33;3.07;;;;;;;;;;5003686;28;20497;-42
2022/12/20 02:22:00;;;;;;;3.43;2.80;;;;;;;;;;4992844;28;20952;-42
2022/12/20 02:24:40;;;;;;;3.00;2.80;;;;;;;;;;5008690;28;20427;-42
2022/12/20 02:27:06;;;;;;;5.00;2.97;;;;;;;;;;5006923;28;20860;-42
2022/12/20 02:29:35;;;;;;;3.77;3.30;;;;;;;;;;4996051;28;20447;-43
2022/12/20 02:32:07;;;;;;;3.27;3.07;;;;;;;;;;4996859;28;20984;-43
2022/12/20 02:34:35;;;;;;;2.97;2.70;;;;;;;;;;4992894;28;20493;-42
2022/12/20 02:37:01;;;;;;;7.50;3.30;;;;;;;;;;5000465;28;20491;-43
2022/12/20 02:39:28;;;;;;;6.40;3.47;;;;;;;;;;5018340;28;20505;-43
2022/12/20 02:41:57;;;;;;;3.53;3.23;;;;;;;;;;5002984;28;20432;-42
2022/12/20 02:47:12;;;;;;;3.70;3.40;;;;;;;;;;5003593;28;20416;-42
2022/12/20 02:49:40;;;;;;;4.43;3.97;;;;;;;;;;4997868;28;20423;-42
2022/12/20 02:52:07;;;;;;;5.10;4.00;;;;;;;;;;5003216;28;20470;-42
2022/12/20 02:54:33;;;;;;;3.70;3.40;;;;;;;;;;4994092;28;20415;-42
2022/12/20 02:56:59;;;;;;;5.03;3.27;;;;;;;;;;5001232;28;20400;-43
2022/12/20 02:59:31;;;;;;;4.30;3.73;;;;;;;;;;5002693;28;20920;-43
2022/12/20 03:01:57;;;;;;;4.20;3.80;;;;;;;;;;4995089;28;20424;-43
2022/12/20 03:04:24;;;;;;;4.67;3.70;;;;;;;;;;5003922;28;20422;-42
2022/12/20 03:07:01;;;;;;;3.90;3.60;;;;;;;;;;5005842;28;20419;-42
2022/12/20 03:09:28;;;;;;;4.17;3.80;;;;;;;;;;5006432;28;20429;-42
2022/12/20 03:11:55;;;;;;;4.40;3.03;;;;;;;;;;5002587;28;20435;-42
2022/12/20 03:14:21;;;;;;;5.30;4.23;;;;;;;;;;4998629;28;20427;-43
2022/12/20 03:16:47;;;;;;;4.37;3.80;;;;;;;;;;4999664;28;20408;-42
2022/12/20 03:19:13;;;;;;;4.13;3.40;;;;;;;;;;5002512;28;20724;-43
2022/12/20 03:21:39;;;;;;;8.40;3.80;;;;;;;;;;5006912;28;20988;-43
2022/12/20 03:24:05;;;;;;;3.60;3.30;;;;;;;;;;5004830;28;20472;-42
2022/12/20 03:26:31;;;;;;;5.00;3.90;;;;;;;;;;5009197;28;20415;-42
2022/12/20 03:28:57;;;;;;;5.10;4.07;;;;;;;;;;5006286;28;20933;-42
2022/12/20 03:31:23;;;;;;;5.70;3.90;;;;;;;;;;4998467;28;20854;-42
2022/12/20 03:33:49;;;;;;;6.47;3.60;;;;;;;;;;5009787;28;20419;-42
2022/12/20 03:36:15;;;;;;;4.90;4.30;;;;;;;;;;5005596;28;20424;-42
2022/12/20 03:38:41;;;;;;;4.80;4.40;;;;;;;;;;5007369;28;20482;-42
2022/12/20 03:41:07;;;;;;;7.03;4.10;;;;;;;;;;5003249;28;20585;-42
2022/12/20 03:43:33;;;;;;;7.03;4.40;;;;;;;;;;5007122;28;20463;-42
2022/12/20 03:45:59;;;;;;;4.40;3.50;;;;;;;;;;5004395;28;20418;-42
2022/12/20 03:48:25;;;;;;;4.23;3.43;;;;;;;;;;4999025;28;20411;-42
2022/12/20 03:50:51;;;;;;;6.23;3.90;;;;;;;;;;5006354;28;20424;-42
2022/12/20 03:53:17;;;;;;;3.60;3.30;;;;;;;;;;5003725;28;20470;-42
2022/12/20 03:55:43;;;;;;;11.33;4.17;;;;;;;;;;5005436;28;20422;-42
2022/12/20 03:58:09;;;;;;;6.43;3.97;;;;;;;;;;5003875;28;20499;-42
2022/12/20 04:00:34;;;;;;;4.70;4.27;;;;;;;;;;5003879;28;20511;-42
2022/12/20 04:03:00;;;;;;;5.93;4.43;;;;;;;;;;5002848;28;20463;-42
2022/12/20 04:05:26;;;;;;;4.83;4.33;;;;;;;;;;5004156;28;20412;-42
2022/12/20 04:07:52;;;;;;;6.50;4.40;;;;;;;;;;5006351;28;20407;-42
2022/12/20 04:10:18;;;;;;;4.90;4.50;;;;;;;;;;5007576;28;20438;-43
2022/12/20 04:12:44;;;;;;;8.73;4.27;;;;;;;;;;5007704;28;20445;-43
2022/12/20 04:15:10;;;;;;;7.40;4.00;;;;;;;;;;4997821;28;20423;-41
2022/12/20 04:17:36;;;;;;;4.60;4.20;;;;;;;;;;5006598;28;20938;-41
2022/12/20 04:20:17;;;;;;;3.90;3.60;;;;;;;;;;5004075;28;20415;-41
2022/12/20 04:22:44;;;;;;;5.90;4.13;;;;;;;;;;4996317;28;20821;-42
2022/12/20 04:25:10;;;;;;;6.03;4.23;;;;;;;;;;5003670;28;20889;-41
2022/12/20 04:27:36;;;;;;;4.57;3.90;;;;;;;;;;5004311;28;20499;-42
2022/12/20 04:30:02;;;;;;;5.40;4.07;;;;;;;;;;5002236;28;20411;-41
2022/12/20 04:32:28;;;;;;;4.80;4.10;;;;;;;;;;5002524;28;20432;-42
2022/12/20 04:34:54;;;;;;;4.97;4.57;;;;;;;;;;5006917;28;20426;-42
2022/12/20 04:37:20;;;;;;;4.47;4.17;;;;;;;;;;5002044;28;20416;-42
2022/12/20 04:39:46;;;;;;;4.37;3.63;;;;;;;;;;5003642;28;20415;-41
2022/12/20 04:42:12;;;;;;;7.63;4.47;;;;;;;;;;5002616;28;20466;-41
2022/12/20 04:44:38;;;;;;;5.70;4.50;;;;;;;;;;5003286;28;20420;-41
2022/12/20 04:47:04;;;;;;;5.53;5.03;;;;;;;;;;5003618;28;20819;-41
2022/12/20 04:49:30;;;;;;;6.60;4.30;;;;;;;;;;5008309;28;20415;-41
2022/12/20 04:53:46;;;;;;;9.23;5.07;;;;;;;;;;5004754;28;20496;-41
2022/12/20 04:54:42;;;;;;;4.83;4.37;;;;;;;;;;4995499;28;20781;-41
2022/12/20 04:57:08;;;;;;;5.63;4.57;;;;;;;;;;4998633;28;20416;-42
2022/12/20 04:59:34;;;;;;;6.47;4.20;;;;;;;;;;5006598;28;20472;-41
2022/12/20 05:02:01;;;;;;;5.40;4.90;;;;;;;;;;5003355;28;20975;-41
2022/12/20 05:04:27;;;;;;;11.07;5.43;;;;;;;;;;5006315;28;20962;-41
2022/12/20 05:06:52;;;;;;;5.47;4.90;;;;;;;;;;5003725;28;20416;-41
2022/12/20 05:09:18;;;;;;;7.33;4.67;;;;;;;;;;5005329;28;20415;-42
2022/12/20 05:11:44;;;;;;;5.40;4.33;;;;;;;;;;4999457;28;20431;-42
2022/12/20 05:14:10;;;;;;;6.67;4.90;;;;;;;;;;5005821;28;20422;-41
2022/12/20 05:16:36;;;;;;;7.13;5.20;;;;;;;;;;5004069;28;20415;-42
2022/12/20 05:19:03;;;;;;;6.37;5.43;;;;;;;;;;5002816;28;20431;-42
2022/12/20 05:26:59;;;;;;;9.73;4.80;;;;;;;;;;5002611;28;20461;-41
2022/12/20 05:29:26;;;;;;;5.63;5.13;;;;;;;;;;5005451;28;20439;-42
2022/12/20 05:31:52;;;;;;;5.77;5.10;;;;;;;;;;5004292;28;20466;-41
2022/12/20 05:34:18;;;;;;;5.27;4.77;;;;;;;;;;5006034;28;20729;-41
2022/12/20 05:36:44;;;;;;;6.20;5.70;;;;;;;;;;5001466;28;20422;-41
2022/12/20 05:39:13;;;;;;;6.27;5.03;;;;;;;;;;4998148;28;20502;-41
2022/12/20 05:41:39;;;;;;;8.60;5.50;;;;;;;;;;5004510;28;20434;-42
2022/12/20 05:44:06;;;;;;;9.80;5.40;;;;;;;;;;5002988;28;20471;-42
2022/12/20 05:46:32;;;;;;;6.47;5.27;;;;;;;;;;5005759;28;20413;-41
2022/12/20 05:48:58;;;;;;;8.40;5.87;;;;;;;;;;5002130;28;20412;-42
2022/12/20 05:51:24;;;;;;;7.70;5.30;;;;;;;;;;5002993;28;20944;-42
2022/12/20 05:53:50;;;;;;;5.07;4.47;;;;;;;;;;5000033;28;20422;-41
2022/12/20 05:56:16;;;;;;;6.53;5.33;;;;;;;;;;5003619;28;20427;-42
2022/12/20 05:58:42;;;;;;;8.73;4.40;;;;;;;;;;5003984;28;20411;-42
2022/12/20 06:01:09;;;;;;;8.07;4.33;;;;;;;;;;4999667;28;20502;-42
2022/12/20 06:03:35;;;;;;;9.90;4.80;;;;;;;;;;5003093;28;20458;-42
2022/12/20 06:06:01;;;;;;;5.10;4.60;;;;;;;;;;5001745;28;20436;-41
2022/12/20 06:08:27;;;;;;;4.60;4.17;;;;;;;;;;5001808;28;20471;-41
2022/12/20 06:10:53;;;;;;;9.00;4.53;;;;;;;;;;5000681;28;20944;-42
2022/12/20 06:13:19;;;;;;;5.63;4.03;;;;;;;;;;5006550;28;20489;-41
2022/12/20 06:15:45;;;;;;;6.13;5.43;;;;;;;;;;5001905;28;20414;-42
2022/12/20 06:18:12;;;;;;;6.63;4.10;;;;;;;;;;4997291;28;20493;-42
2022/12/20 06:20:38;;;;;;;5.00;4.07;;;;;;;;;;4999685;28;20416;-41
2022/12/20 06:23:04;;;;;;;4.30;3.93;;;;;;;;;;5000908;28;20455;-42
2022/12/20 06:25:30;;;;;;;6.93;5.03;;;;;;;;;;5004146;28;20406;-42
2022/12/20 06:27:57;;;;;;;4.67;4.27;;;;;;;;;;5003258;28;20431;-41
2022/12/20 06:30:23;;;;;;;4.53;4.13;;;;;;;;;;5004859;28;20415;-42
2022/12/20 06:32:49;;;;;;;4.90;4.40;;;;;;;;;;4999971;28;20943;-42
2022/12/20 06:35:15;;;;;;;4.33;3.93;;;;;;;;;;4996587;28;20420;-42
2022/12/20 06:37:41;;;;;;;8.33;4.63;;;;;;;;;;5004094;28;20422;-42
2022/12/20 06:40:08;;;;;;;6.60;4.10;;;;;;;;;;5001271;28;20420;-43
2022/12/20 06:42:34;;;;;;;4.47;4.07;;;;;;;;;;5003402;28;20516;-42
2022/12/20 06:45:00;;;;;;;3.97;3.70;;;;;;;;;;5000950;28;20428;-41
2022/12/20 06:47:26;;;;;;;4.40;3.50;;;;;;;;;;5002589;28;20457;-42
2022/12/20 06:49:52;;;;;;;4.67;4.03;;;;;;;;;;4999169;28;20509;-42
2022/12/20 06:52:18;;;;;;;4.63;3.90;;;;;;;;;;5001598;28;20435;-42
2022/12/20 06:54:44;;;;;;;4.43;4.03;;;;;;;;;;5002720;28;20445;-42
2022/12/20 06:57:10;;;;;;;4.00;3.67;;;;;;;;;;4998676;28;20881;-41
2022/12/20 06:59:36;;;;;;;3.27;3.03;;;;;;;;;;5001113;28;20418;-43
2022/12/20 07:02:02;;;;;;;5.57;4.03;;;;;;;;;;4998743;28;20439;-41
2022/12/20 07:04:28;;;;;;;3.83;3.43;;;;;;;;;;4999270;28;20443;-41
2022/12/20 07:06:55;;;;;;;7.30;3.70;;;;;;;;;;4999875;28;20474;-42
2022/12/20 07:09:21;;;;;;;5.57;3.87;;;;;;;;;;5004672;28;20412;-42
2022/12/20 07:11:47;;;;;;;4.87;4.30;;;;;;;;;;5000727;28;20441;-42
2022/12/20 07:14:14;;;;;;;3.40;3.20;;;;;;;;;;4997017;28;20928;-42
2022/12/20 07:16:42;;;;;;;4.63;3.87;;;;;;;;;;4999231;28;20418;-42
2022/12/20 07:19:11;;;;;;;4.70;3.47;;;;;;;;;;5000623;28;20419;-45
2022/12/20 07:21:37;;;;;;;4.13;3.73;;;;;;;;;;5003384;28;20433;-44
2022/12/20 07:24:03;;;;;;;4.00;3.60;;;;;;;;;;5002219;28;20459;-44
2022/12/20 07:26:29;;;;;;;4.13;3.77;;;;;;;;;;5004905;28;20412;-43
2022/12/20 07:28:55;;;;;;;4.80;3.30;;;;;;;;;;5001240;28;20418;-44
2022/12/20 07:31:21;;;;;;;4.17;3.60;;;;;;;;;;4995545;28;20436;-45
2022/12/20 07:33:47;;;;;;;3.90;3.23;;;;;;;;;;5003081;28;20465;-43
2022/12/20 07:36:14;;;;;;;4.50;4.10;;;;;;;;;;4997366;28;20416;-44
2022/12/20 07:38:41;;;;;;;3.80;3.40;;;;;;;;;;4998608;28;20431;-45
2022/12/20 07:41:08;;;;;;;5.20;3.80;;;;;;;;;;4994752;28;20424;-43
2022/12/20 07:43:34;;;;;;;3.97;3.60;;;;;;;;;;4997145;28;20469;-45
2022/12/20 07:46:00;;;;;;;4.30;3.90;;;;;;;;;;5000579;28;20407;-43
2022/12/20 07:48:25;;;;;;;9.33;4.90;;;;;;;;;;5001868;28;20411;-44
2022/12/20 07:50:53;;;;;;;9.40;3.33;;;;;;;;;;5003478;28;20418;-45
2022/12/20 07:53:20;;;;;;;10.97;5.03;;;;;;;;;;5000164;28;20409;-45
2022/12/20 07:55:47;;;;;;;2.97;2.77;;;;;;;;;;5001525;28;20412;-43
2022/12/20 07:58:13;;;;;;;3.97;3.57;;;;;;;;;;4994174;28;20420;-44
2022/12/20 08:00:39;;;;;;;5.00;4.30;;;;;;;;;;4989930;28;20416;-45
2022/12/20 08:03:08;;;;;;;4.77;3.73;;;;;;;;;;5000028;28;20554;-45
2022/12/20 08:05:36;;;;;;;4.50;3.90;;;;;;;;;;4997865;28;20507;-44
2022/12/20 08:08:02;;;;;;;5.17;3.43;;;;;;;;;;5007300;28;20415;-45
2022/12/20 08:10:29;;;;;;;3.67;3.37;;;;;;;;;;5001637;28;20422;-43
2022/12/20 08:12:55;;;;;;;4.10;3.80;;;;;;;;;;5008282;28;20490;-45
2022/12/20 08:15:22;;;;;;;4.27;3.10;;;;;;;;;;5007049;28;20438;-46
2022/12/20 08:17:48;;;;;;;3.90;3.60;;;;;;;;;;5010314;28;20401;-44
2022/12/20 08:20:14;;;;;;;3.50;3.20;;;;;;;;;;5005898;28;20408;-43
2022/12/20 08:22:40;;;;;;;5.00;3.40;;;;;;;;;;5006654;28;20883;-44
2022/12/20 08:25:06;;;;;;;3.80;3.43;;;;;;;;;;5006795;28;20415;-43
2022/12/20 08:27:32;;;;;;;3.60;3.30;;;;;;;;;;4992091;28;20960;-43
2022/12/20 08:29:59;;;;;;;3.80;3.50;;;;;;;;;;5007699;28;20414;-44
2022/12/20 08:32:25;;;;;;;5.47;3.23;;;;;;;;;;5003664;28;20478;-44
2022/12/20 08:34:51;;;;;;;6.20;3.10;;;;;;;;;;5005257;28;20438;-45
2022/12/20 08:37:18;;;;;;;3.10;2.77;;;;;;;;;;5006023;28;20495;-43
2022/12/20 08:39:44;;;;;;;5.07;3.53;;;;;;;;;;5004398;28;20431;-43
2022/12/20 08:42:10;;;;;;;3.77;3.30;;;;;;;;;;5003888;28;20447;-43
2022/12/20 08:44:36;;;;;;;3.90;3.53;;;;;;;;;;5004183;28;20931;-45
2022/12/20 08:47:02;;;;;;;4.80;3.80;;;;;;;;;;5008492;28;20440;-44
2022/12/20 08:49:28;;;;;;;3.90;3.70;;;;;;;;;;5002646;28;20503;-43
2022/12/20 08:51:54;;;;;;;3.60;3.30;;;;;;;;;;5001604;28;20473;-43
2022/12/20 08:54:20;;;;;;;7.73;3.33;;;;;;;;;;5007626;28;20470;-43
2022/12/20 08:56:46;;;;;;;3.23;2.93;;;;;;;;;;5004345;28;20695;-44
2022/12/20 08:59:12;;;;;;;3.47;3.10;;;;;;;;;;5004049;28;20428;-43
2022/12/20 09:01:38;;;;;;;3.00;2.77;;;;;;;;;;5007248;28;20443;-43
2022/12/20 09:04:04;;;;;;;3.30;3.00;;;;;;;;;;5007254;28;21061;-44
2022/12/20 09:06:30;;;;;;;4.67;3.17;;;;;;;;;;5001421;28;20497;-43
2022/12/20 09:08:59;;;;;;;3.03;2.70;;;;;;;;;;5000846;28;20454;-45
2022/12/20 09:11:25;;;;;;;3.77;2.90;;;;;;;;;;5005232;28;20568;-44
2022/12/20 09:13:52;;;;;;;2.93;2.50;;;;;;;;;;5006639;28;20466;-45
2022/12/20 09:16:19;;;;;;;4.00;2.73;;;;;;;;;;5005488;28;20412;-43
2022/12/20 09:18:52;;;;;;;3.70;2.90;;;;;;;;;;5005702;28;20419;-45
2022/12/20 09:21:19;;;;;;;2.70;2.47;;;;;;;;;;5006074;28;20523;-43
2022/12/20 09:23:45;;;;;;;4.13;2.60;;;;;;;;;;5001829;28;20459;-44
2022/12/20 09:26:12;;;;;;;3.00;2.77;;;;;;;;;;5006627;28;20425;-43
2022/12/20 09:28:38;;;;;;;2.83;2.63;;;;;;;;;;5004631;28;20411;-43
2022/12/20 09:31:05;;;;;;;8.33;3.20;;;;;;;;;;4997806;28;20502;-45
2022/12/20 09:33:31;;;;;;;5.63;3.37;;;;;;;;;;5006888;28;20406;-43
2022/12/20 09:35:58;;;;;;;3.67;2.57;;;;;;;;;;5004204;28;20513;-45
2022/12/20 09:38:24;;;;;;;4.50;3.17;;;;;;;;;;5005517;28;20476;-43
2022/12/20 09:40:51;;;;;;;3.50;3.20;;;;;;;;;;5002927;28;20460;-44
2022/12/20 09:43:17;;;;;;;2.87;2.67;;;;;;;;;;5008915;28;20466;-43
2022/12/20 09:45:45;;;;;;;2.90;2.70;;;;;;;;;;5004377;28;20462;-45
2022/12/20 09:48:26;;;;;;;2.77;2.57;;;;;;;;;;5000627;28;20930;-41
2022/12/20 09:50:52;;;;;;;4.33;3.20;;;;;;;;;;4998823;28;20424;-41
2022/12/20 09:53:23;;;;;;;3.77;3.47;;;;;;;;;;5002792;28;20411;-41
2022/12/20 09:55:56;;;;;;;2.93;2.73;;;;;;;;;;5004652;28;20900;-41
2022/12/20 09:58:42;;;;;;;3.47;3.17;;;;;;;;;;5001910;28;20500;-41
2022/12/20 10:01:15;;;;;;;3.50;3.00;;;;;;;;;;4996691;28;20762;-42
2022/12/20 10:03:41;;;;;;;2.90;2.63;;;;;;;;;;5002598;28;20469;-42
2022/12/20 10:06:19;;;;;;;2.83;2.63;;;;;;;;;;5002521;28;20463;-42
2022/12/20 10:08:56;;;;;;;4.10;2.77;;;;;;;;;;5001145;28;20412;-43
2022/12/20 10:11:25;;;;;;;3.10;2.90;;;;;;;;;;5006519;28;20425;-42
2022/12/20 10:14:10;;;;;;;2.93;2.70;;;;;;;;;;5004440;28;20445;-43
2022/12/20 10:16:45;;;;;;;5.30;3.00;;;;;;;;;;4992625;28;20419;-42
2022/12/20 10:19:13;;;;;;;2.93;2.60;;;;;;;;;;4997175;28;20430;-43
2022/12/20 10:21:40;;;;;;;3.17;2.80;;;;;;;;;;5003381;28;20458;-43
2022/12/20 10:24:17;;;;;;;3.43;2.63;;;;;;;;;;5002207;28;20460;-43
2022/12/20 10:26:43;;;;;;;2.90;2.30;;;;;;;;;;4994423;28;20898;-43
2022/12/20 10:29:09;;;;;;;3.80;3.00;;;;;;;;;;5000015;28;20414;-43
2022/12/20 10:31:35;;;;;;;7.33;2.83;;;;;;;;;;5002079;28;20952;-43
2022/12/20 10:34:01;;;;;;;3.10;2.73;;;;;;;;;;5001176;28;20421;-43
2022/12/20 10:36:29;;;;;;;2.80;2.60;;;;;;;;;;5001096;28;20488;-42
2022/12/20 10:38:56;;;;;;;6.50;2.80;;;;;;;;;;5004944;28;20418;-43
2022/12/20 10:41:29;;;;;;;3.07;2.77;;;;;;;;;;4999241;28;20451;-42
2022/12/20 10:43:58;;;;;;;3.00;2.73;;;;;;;;;;4999570;28;20455;-41
2022/12/20 10:46:34;;;;;;;3.83;3.10;;;;;;;;;;5000073;28;20416;-41
2022/12/20 10:49:19;;;;;;;7.40;2.30;;;;;;;;;;4998530;28;20484;-42
2022/12/20 10:51:51;;;;;;;2.60;2.37;;;;;;;;;;4999111;28;20464;-42
2022/12/20 10:54:28;;;;;;;2.57;2.37;;;;;;;;;;4998588;28;20409;-44
2022/12/20 10:56:58;;;;;;;8.10;2.67;;;;;;;;;;5001306;28;20416;-42
2022/12/20 10:59:35;;;;;;;3.80;2.70;;;;;;;;;;5002703;28;20416;-42
2022/12/20 11:02:02;;;;;;;3.03;2.50;;;;;;;;;;4999867;28;20445;-43
2022/12/20 11:04:33;;;;;;;8.30;2.43;;;;;;;;;;5000586;28;20466;-42
2022/12/20 11:07:00;;;;;;;2.63;2.43;;;;;;;;;;5005324;28;20424;-41
2022/12/20 11:09:36;;;;;;;5.13;2.90;;;;;;;;;;4999797;28;20426;-41
2022/12/20 11:12:12;;;;;;;3.60;2.90;;;;;;;;;;4997920;28;20933;-41
2022/12/20 11:14:39;;;;;;;2.63;2.43;;;;;;;;;;4993129;28;20406;-42
2022/12/20 11:17:14;;;;;;;2.67;2.47;;;;;;;;;;4999849;28;20417;-42
2022/12/20 11:19:46;;;;;;;2.50;2.30;;;;;;;;;;4993284;28;20400;-42
2022/12/20 11:22:12;;;;;;;2.43;2.10;;;;;;;;;;4999788;28;20499;-43
2022/12/20 11:24:45;;;;;;;6.07;2.70;;;;;;;;;;5003821;28;20854;-42
2022/12/20 11:27:10;;;;;;;1.80;1.70;;;;;;;;;;5002903;28;20749;-43
2022/12/20 11:29:57;;;;;;;3.40;2.30;;;;;;;;;;4996959;28;20413;-42
2022/12/20 11:32:29;;;;;;;2.47;2.37;;;;;;;;;;5000086;28;20446;-43
2022/12/20 11:35:01;;;;;;;2.43;2.20;;;;;;;;;;5004617;28;20414;-42
2022/12/20 11:37:28;;;;;;;4.77;2.30;;;;;;;;;;4999703;28;20420;-41
2022/12/20 11:40:04;;;;;;;13.50;8.47;;;;;;;;;;4989391;28;20430;-42
2022/12/20 11:42:36;;;;;;;2.57;2.37;;;;;;;;;;4994181;28;20561;-42
2022/12/20 11:45:08;;;;;;;3.60;2.57;;;;;;;;;;5012030;28;20445;-43
2022/12/20 11:47:51;;;;;;;2.50;2.27;;;;;;;;;;4996064;28;20913;-41
2022/12/20 11:50:17;;;;;;;3.93;2.73;;;;;;;;;;4995245;28;20429;-42
2022/12/20 11:52:43;;;;;;;5.10;2.37;;;;;;;;;;4999853;28;20948;-45
2022/12/20 11:55:12;;;;;;;5.23;2.57;;;;;;;;;;4999288;28;20434;-45
2022/12/20 11:57:49;;;;;;;2.70;2.50;;;;;;;;;;5003974;28;20596;-44
2022/12/20 12:00:16;;;;;;;3.33;2.63;;;;;;;;;;4994689;28;20424;-42
2022/12/20 12:02:52;;;;;;;3.40;3.10;;;;;;;;;;5004151;28;20468;-44
2022/12/20 12:05:21;;;;;;;2.87;2.67;;;;;;;;;;5001426;28;20906;-41
2022/12/20 12:07:50;;;;;;;3.07;2.47;;;;;;;;;;5003784;28;20781;-44
2022/12/20 12:10:22;;;;;;;5.13;2.47;;;;;;;;;;4997950;28;20442;-43
2022/12/20 12:12:52;;;;;;;3.50;3.20;;;;;;;;;;4993025;28;20436;-43
2022/12/20 12:15:25;;;;;;;2.70;2.50;;;;;;;;;;5009305;28;20405;-44
2022/12/20 12:17:59;;;;;;;4.80;2.80;;;;;;;;;;5006589;28;20460;-42
2022/12/20 12:20:40;;;;;;;4.97;2.90;;;;;;;;;;5003631;28;20415;-43
2022/12/20 12:23:15;;;;;;;5.20;2.57;;;;;;;;;;5006241;28;20966;-42
2022/12/20 12:25:41;;;;;;;2.80;2.60;;;;;;;;;;4993887;28;20475;-43
2022/12/20 12:28:10;;;;;;;3.20;3.00;;;;;;;;;;5005645;28;20418;-42
2022/12/20 12:30:38;;;;;;;7.60;2.50;;;;;;;;;;5004503;28;20541;-43
2022/12/20 12:33:09;;;;;;;2.50;2.30;;;;;;;;;;5004085;28;20452;-43
2022/12/20 12:35:46;;;;;;;2.43;2.30;;;;;;;;;;4995872;28;20889;-43
2022/12/20 12:38:22;;;;;;;7.33;3.13;;;;;;;;;;4997386;28;20467;-43
2022/12/20 12:40:51;;;;;;;4.00;2.40;;;;;;;;;;4987667;28;20422;-45
2022/12/20 12:43:35;;;;;;;3.47;2.53;;;;;;;;;;4993967;28;20503;-43
2022/12/20 12:46:04;;;;;;;5.90;2.80;;;;;;;;;;4991970;28;21075;-45
2022/12/20 12:48:35;;;;;;;2.37;2.23;;;;;;;;;;5000659;28;20420;-44
2022/12/20 12:51:02;;;;;;;4.50;2.47;;;;;;;;;;5002860;28;20876;-43
2022/12/20 12:53:34;;;;;;;2.53;2.37;;;;;;;;;;4999890;28;20416;-43
2022/12/20 12:56:20;;;;;;;3.43;2.73;;;;;;;;;;5008844;28;20432;-44
2022/12/20 12:59:06;;;;;;;2.40;2.20;;;;;;;;;;5002883;28;20408;-44
2022/12/20 13:01:40;;;;;;;3.90;2.80;;;;;;;;;;4996521;28;20452;-44
2022/12/20 13:04:21;;;;;;;3.63;3.30;;;;;;;;;;5003775;28;20832;-44
2022/12/20 13:06:55;;;;;;;3.00;2.70;;;;;;;;;;5000150;28;20413;-45
2022/12/20 13:09:27;;;;;;;4.23;2.50;;;;;;;;;;5005000;28;20777;-45
2022/12/20 13:11:54;;;;;;;2.97;2.67;;;;;;;;;;5008246;28;20467;-43
2022/12/20 13:14:22;;;;;;;5.33;2.80;;;;;;;;;;5006803;28;20418;-45
2022/12/20 13:16:50;;;;;;;2.70;2.50;;;;;;;;;;5007717;28;20412;-44
2022/12/20 13:19:31;;;;;;;3.20;2.80;;;;;;;;;;5007353;28;20417;-45
2022/12/20 13:21:58;;;;;;;3.30;2.80;;;;;;;;;;5003840;28;20437;-42
2022/12/20 13:24:49;;;;;;;2.70;2.50;;;;;;;;;;4999470;28;20462;-43
2022/12/20 13:27:17;;;;;;;2.77;2.47;;;;;;;;;;5007188;28;20798;-44
2022/12/20 13:29:51;;;;;;;3.50;3.00;;;;;;;;;;5005934;28;20454;-46
2022/12/20 13:32:36;;;;;;;3.90;2.33;;;;;;;;;;5002388;28;20466;-44
2022/12/20 13:35:02;;;;;;;3.30;3.00;;;;;;;;;;5001462;28;20553;-44
2022/12/20 13:37:38;;;;;;;5.33;3.20;;;;;;;;;;5004127;28;20470;-45
2022/12/20 13:40:05;;;;;;;3.10;2.90;;;;;;;;;;5003747;28;20767;-45
2022/12/20 13:42:36;;;;;;;3.47;3.17;;;;;;;;;;5006112;28;20441;-45
2022/12/20 13:45:03;;;;;;;5.83;3.10;;;;;;;;;;5004244;28;20439;-43
2022/12/20 13:47:32;;;;;;;3.37;2.53;;;;;;;;;;5007359;28;20409;-45
2022/12/20 13:50:02;;;;;;;6.40;3.00;;;;;;;;;;4998346;28;20418;-44
2022/12/20 13:52:30;;;;;;;3.63;3.17;;;;;;;;;;5000574;28;20817;-42
2022/12/20 13:55:00;;;;;;;3.77;3.47;;;;;;;;;;5000275;28;20423;-42
2022/12/20 13:57:44;;;;;;;4.33;3.27;;;;;;;;;;5003630;28;20416;-42
2022/12/20 14:00:24;;;;;;;3.37;2.53;;;;;;;;;;5002793;28;20766;-43
2022/12/20 14:02:51;;;;;;;4.30;3.30;;;;;;;;;;4999997;28;20467;-42
2022/12/20 14:05:20;;;;;;;3.13;2.93;;;;;;;;;;5001154;28;20416;-42
2022/12/20 14:07:53;;;;;;;4.10;3.30;;;;;;;;;;5001160;28;20756;-42
2022/12/20 14:10:22;;;;;;;3.03;2.83;;;;;;;;;;5002681;28;20774;-43
2022/12/20 14:12:49;;;;;;;3.27;2.93;;;;;;;;;;5003575;28;20431;-43
2022/12/20 14:15:21;;;;;;;3.60;3.30;;;;;;;;;;5004482;28;20819;-43
2022/12/20 14:17:47;;;;;;;3.30;3.00;;;;;;;;;;5000216;28;20838;-43
2022/12/20 14:20:13;;;;;;;3.60;3.30;;;;;;;;;;4996466;28;20424;-44
2022/12/20 14:22:41;;;;;;;6.13;3.30;;;;;;;;;;5003531;28;20474;-42
2022/12/20 14:25:08;;;;;;;3.30;3.00;;;;;;;;;;5001433;28;20506;-43
2022/12/20 14:27:37;;;;;;;6.00;3.03;;;;;;;;;;5004182;28;20396;-42
2022/12/20 14:30:04;;;;;;;3.50;3.20;;;;;;;;;;5000888;28;20409;-42
2022/12/20 14:32:30;;;;;;;5.97;2.90;;;;;;;;;;5002050;28;20774;-43
2022/12/20 14:34:56;;;;;;;6.10;3.30;;;;;;;;;;4999669;28;20479;-42
2022/12/20 14:37:28;;;;;;;3.73;3.40;;;;;;;;;;5001777;28;20415;-43
2022/12/20 14:39:55;;;;;;;5.03;3.57;;;;;;;;;;5004355;28;20442;-42
2022/12/20 14:42:21;;;;;;;5.93;3.73;;;;;;;;;;4998492;28;20435;-42
2022/12/20 14:44:47;;;;;;;6.37;4.20;;;;;;;;;;5000329;28;20436;-42
2022/12/20 14:47:14;;;;;;;4.13;3.73;;;;;;;;;;5001023;28;20412;-43
2022/12/20 14:49:40;;;;;;;4.93;3.37;;;;;;;;;;5000455;28;20412;-42
2022/12/20 14:52:06;;;;;;;5.03;4.63;;;;;;;;;;4999895;28;20948;-42
2022/12/20 14:54:32;;;;;;;9.00;5.27;;;;;;;;;;5005955;28;20770;-43
2022/12/20 14:56:58;;;;;;;12.13;5.03;;;;;;;;;;5002852;28;20429;-43
2022/12/20 14:59:26;;;;;;;9.17;4.53;;;;;;;;;;4997975;28;20424;-42